Stations météo

Publicité
Chatillon/Seine, France (7276): Température de l'air & dewpoint: 16.08.2018 01:00:00 - 22.08.2018 01:00:00 (CEST)Chatillon/Seine, France (7276): Vitesse du vent & gusts: 16.08.2018 01:00:00 - 22.08.2018 01:00:00 (CEST)Chatillon/Seine, France (7276): Direction du vent: 16.08.2018 01:00:00 - 22.08.2018 01:00:00 (CEST)Chatillon/Seine, France (7276): Ensoleillement: 16.08.2018 01:00:00 - 22.08.2018 01:00:00 (CEST)Chatillon/Seine, France (7276): Quantités de précipitations: 16.08.2018 01:00:00 - 22.08.2018 01:00:00 (CEST)
Date & Time tt [°C] td [°C] ff [km/h] ff [knt] fx [km/h] fx [knt] dd sd [min] rr [mm]
22.08.2018 01:00:00 16,9 13,4 2 1 4 2 SSE 0 0,0
22.08.2018 00:00:00 17,5 12,8 4 2 4 2 E 0 0,0
21.08.2018 23:00:00 20,2 13,6 0 0 9 5 N 0 0,0
21.08.2018 22:00:00 22,5 14,1 5 3 16 9 N 0 0,0
21.08.2018 21:00:00 24,3 14,1 9 5 22 12 N 12 0,0
21.08.2018 20:00:00 26,2 13,7 13 7 26 14 N 60 -
21.08.2018 19:00:00 27,7 14,0 13 7 29 16 NNW 60 0,0
21.08.2018 18:00:00 28,5 14,3 13 7 31 17 NW 60 0,0
21.08.2018 17:00:00 28,7 14,5 9 5 22 12 NW 60 0,0
21.08.2018 16:00:00 28,8 14,2 11 6 24 13 NW 60 0,0
21.08.2018 15:00:00 28,2 14,8 5 3 22 12 NNW 60 0,0
21.08.2018 14:00:00 27,5 14,8 8 4 26 14 NNE 42 -
21.08.2018 13:00:00 25,7 15,4 9 5 21 11 NNW 30 0,0
21.08.2018 12:00:00 24,0 15,5 11 6 18 10 NNW 36 0,0
21.08.2018 11:00:00 23,9 17,4 8 4 16 9 N 48 0,0
21.08.2018 10:00:00 20,7 16,5 8 4 15 8 N 60 0,0
21.08.2018 09:00:00 17,4 16,8 4 2 5 3 N 60 0,0
21.08.2018 08:00:00 14,0 13,4 2 1 5 3 SSW 48 -
21.08.2018 07:00:00 11,9 11,0 0 0 4 2 N 0 0,0
21.08.2018 06:00:00 12,9 12,3 2 1 5 3 S 0 0,0
21.08.2018 05:00:00 13,4 12,6 4 2 4 2 S 0 0,0
21.08.2018 04:00:00 14,0 12,7 2 1 4 2 SSE 0 0,0
21.08.2018 03:00:00 14,4 12,6 2 1 5 3 SE 0 0,0
21.08.2018 02:00:00 15,1 13,5 5 3 8 4 SW 0 -
21.08.2018 01:00:00 15,5 13,5 2 1 5 3 SW 0 0,0
21.08.2018 00:00:00 16,9 13,8 4 2 5 3 W 0 0,0
20.08.2018 23:00:00 18,3 14,4 0 0 5 3 N 0 0,0
20.08.2018 22:00:00 20,6 14,9 4 2 9 5 NW 0 0,0
20.08.2018 21:00:00 22,2 15,1 5 3 22 12 N 0 0,0
20.08.2018 20:00:00 24,1 15,3 13 7 22 12 NNW 48 -
20.08.2018 19:00:00 25,2 15,8 13 7 24 13 NNW 24 0,0
20.08.2018 18:00:00 25,3 15,3 11 6 22 12 NNW 24 0,0
20.08.2018 17:00:00 25,5 15,5 11 6 26 14 NNW 12 0,0
20.08.2018 16:00:00 25,3 15,9 11 6 29 16 NW 0 0,0
20.08.2018 15:00:00 26,0 15,1 9 5 29 16 NW 0 0,0
20.08.2018 14:00:00 25,6 15,6 9 5 22 12 WNW 24 -
20.08.2018 13:00:00 26,1 15,2 5 3 16 9 WNW 60 0,0
20.08.2018 12:00:00 24,7 15,3 8 4 15 8 NNW 60 0,0
20.08.2018 11:00:00 23,2 15,0 5 3 18 10 N 54 0,0
20.08.2018 10:00:00 20,3 13,7 5 3 11 6 NNW 60 0,0
20.08.2018 09:00:00 17,8 13,1 2 1 8 4 W 60 0,0
20.08.2018 08:00:00 13,5 11,9 4 2 5 3 WSW 54 -
20.08.2018 07:00:00 11,8 10,5 0 0 9 5 N 0 0,0
20.08.2018 06:00:00 11,9 10,3 9 5 13 7 S 0 0,0
20.08.2018 05:00:00 12,3 10,9 4 2 8 4 S 0 0,0
20.08.2018 04:00:00 13,1 11,0 0 0 8 4 N 0 0,0
20.08.2018 03:00:00 13,4 11,5 4 2 8 4 S 0 0,0
20.08.2018 02:00:00 13,7 10,9 4 2 8 4 S 0 -
20.08.2018 01:00:00 15,2 12,0 4 2 8 4 S 0 0,0
20.08.2018 00:00:00 16,1 11,9 4 2 9 5 SSW 0 0,0
19.08.2018 23:00:00 17,4 12,1 8 4 8 4 SSW 0 0,0
19.08.2018 22:00:00 20,5 12,0 4 2 8 4 SSE 0 0,0
19.08.2018 21:00:00 24,2 12,5 5 3 15 8 NNW 18 0,0
19.08.2018 20:00:00 26,3 11,6 9 5 22 12 NW 60 -
19.08.2018 19:00:00 27,4 8,8 11 6 24 13 NNW 60 0,0
19.08.2018 18:00:00 28,0 9,8 13 7 24 13 WNW 60 0,0
19.08.2018 17:00:00 28,4 9,6 8 4 26 14 W 60 0,0
19.08.2018 16:00:00 28,5 9,2 8 4 24 13 W 60 0,0
19.08.2018 15:00:00 27,8 10,1 8 4 18 10 NW 60 0,0
19.08.2018 14:00:00 27,1 10,3 5 3 21 11 W 60 -
19.08.2018 13:00:00 25,4 10,4 5 3 13 7 WNW 60 0,0
19.08.2018 12:00:00 24,5 10,7 5 3 13 7 W 60 0,0
19.08.2018 11:00:00 22,6 11,3 4 2 9 5 NNW 54 0,0
19.08.2018 10:00:00 20,0 11,0 0 0 5 3 N 60 0,0
19.08.2018 09:00:00 14,8 10,2 0 0 4 2 N 60 0,0
19.08.2018 08:00:00 10,3 9,2 0 0 5 3 N 54 -
19.08.2018 07:00:00 7,5 6,1 2 1 11 6 SE 0 0,0
19.08.2018 06:00:00 8,4 7,3 2 1 5 3 W 0 0,0
19.08.2018 05:00:00 8,9 7,7 2 1 4 2 SSW 0 0,0
19.08.2018 04:00:00 8,7 7,0 4 2 5 3 SSE 0 0,0
19.08.2018 03:00:00 9,6 7,4 2 1 8 4 W 0 0,0
19.08.2018 02:00:00 9,6 7,2 4 2 5 3 SE 0 -
19.08.2018 01:00:00 10,9 7,0 4 2 8 4 SSE 0 0,0
19.08.2018 00:00:00 12,9 8,2 4 2 8 4 SSW 0 0,0
18.08.2018 23:00:00 14,5 8,4 4 2 8 4 SSE 0 0,0
18.08.2018 22:00:00 17,2 7,5 2 1 9 5 E 0 0,0
18.08.2018 21:00:00 20,9 7,5 5 3 16 9 N 24 0,0
18.08.2018 20:00:00 23,3 7,4 11 6 22 12 NNW 60 -
18.08.2018 19:00:00 24,5 8,0 11 6 22 12 NNW 60 0,0
18.08.2018 18:00:00 25,2 6,9 9 5 26 14 NW 60 0,0
18.08.2018 17:00:00 25,2 7,3 11 6 24 13 NNW 60 0,0
18.08.2018 16:00:00 25,2 8,2 8 4 24 13 NW 60 0,0
18.08.2018 15:00:00 24,6 8,9 9 5 26 14 NW 54 0,0
18.08.2018 14:00:00 24,1 8,5 13 7 24 13 N 60 -
18.08.2018 13:00:00 23,6 8,8 11 6 24 13 N 60 0,0
18.08.2018 12:00:00 22,2 10,3 8 4 18 10 NNW 60 0,0
18.08.2018 11:00:00 20,0 11,2 8 4 13 7 NNW 54 0,0
18.08.2018 10:00:00 17,9 11,5 2 1 8 4 N 60 0,0
18.08.2018 09:00:00 14,2 10,6 4 2 8 4 SW 60 0,0
18.08.2018 08:00:00 11,5 10,7 2 1 5 3 S 60 -
18.08.2018 07:00:00 9,8 9,0 4 2 9 5 S 0 0,0
18.08.2018 06:00:00 9,5 8,4 5 3 8 4 SSE 0 0,0
18.08.2018 05:00:00 10,2 8,8 0 0 5 3 N 0 0,0
18.08.2018 04:00:00 10,4 8,7 0 0 9 5 N 0 0,0
18.08.2018 03:00:00 11,9 9,3 4 2 5 3 S 0 0,0
18.08.2018 02:00:00 13,1 9,9 2 1 8 4 W 0 -
18.08.2018 01:00:00 13,8 10,2 2 1 8 4 SSE 0 0,0
18.08.2018 00:00:00 15,2 10,2 0 0 8 4 N 0 0,0
17.08.2018 23:00:00 17,5 10,8 5 3 9 5 NNW 0 0,0
17.08.2018 22:00:00 18,8 11,1 4 2 11 6 N 0 0,0
17.08.2018 21:00:00 20,7 10,8 5 3 16 9 NNW 18 0,0
17.08.2018 20:00:00 22,0 11,4 11 6 24 13 NNW 18 -
17.08.2018 19:00:00 22,8 11,5 13 7 28 15 NW 54 0,0
17.08.2018 18:00:00 23,9 12,2 15 8 28 15 NNW 30 0,0
17.08.2018 17:00:00 23,6 13,5 13 7 28 15 NNW 18 0,0
17.08.2018 16:00:00 23,2 13,9 13 7 26 14 NW 48 0,0
17.08.2018 15:00:00 22,7 15,8 8 4 18 10 WNW 24 0,0
17.08.2018 14:00:00 19,6 15,3 11 6 24 13 WNW 0 -
17.08.2018 13:00:00 20,8 14,2 13 7 28 15 WNW 36 0,0
17.08.2018 12:00:00 22,2 14,3 11 6 26 14 NW 60 0,0
17.08.2018 11:00:00 20,5 13,9 11 6 26 14 NW 54 0,0
17.08.2018 10:00:00 18,5 13,6 9 5 24 13 NW 30 0,0
17.08.2018 09:00:00 17,4 13,1 11 6 18 10 NNW 30 0,0
17.08.2018 08:00:00 16,8 13,3 5 3 15 8 NW 18 -
17.08.2018 07:00:00 16,9 14,2 8 4 22 12 NNW 0 0,0
17.08.2018 06:00:00 17,3 14,9 9 5 22 12 NNW 0 0,0
17.08.2018 05:00:00 17,4 15,0 9 5 18 10 NNW 0 0,0
17.08.2018 04:00:00 17,5 14,4 8 4 13 7 NW 0 0,0
17.08.2018 03:00:00 16,9 13,8 2 1 18 10 W 0 0,0
17.08.2018 02:00:00 17,4 13,5 0 0 8 4 N 0 -
17.08.2018 01:00:00 18,2 13,9 4 2 9 5 W 0 0,0
17.08.2018 00:00:00 18,8 13,9 5 3 9 5 SSE 0 0,0
16.08.2018 23:00:00 20,6 14,0 4 2 8 4 SSE 0 0,0
16.08.2018 22:00:00 24,1 13,9 5 3 15 8 E 0 0,0
16.08.2018 21:00:00 25,6 13,8 4 2 9 5 NW 30 0,0
16.08.2018 20:00:00 28,7 12,6 8 4 16 9 SSE 30 -
16.08.2018 19:00:00 31,0 10,9 13 7 18 10 SSE 60 0,0
16.08.2018 18:00:00 31,4 10,7 8 4 21 11 W 60 0,0
16.08.2018 17:00:00 32,3 11,5 5 3 21 11 SE 60 0,0
16.08.2018 16:00:00 30,6 11,1 4 2 31 17 NNE 60 0,0
16.08.2018 15:00:00 31,5 12,8 8 4 18 10 S 60 0,0
16.08.2018 14:00:00 29,7 12,2 8 4 18 10 S 60 -
16.08.2018 13:00:00 28,4 13,9 5 3 16 9 SE 60 0,0
16.08.2018 12:00:00 27,1 14,5 4 2 15 8 NE 60 0,0
16.08.2018 11:00:00 25,6 15,9 4 2 11 6 ENE 60 0,0
16.08.2018 10:00:00 22,1 15,9 4 2 5 3 N 60 0,0
16.08.2018 09:00:00 18,3 15,4 0 0 4 2 N 60 0,0
16.08.2018 08:00:00 14,1 13,6 2 1 4 2 ESE 54 -
16.08.2018 07:00:00 10,7 9,9 2 1 5 3 SE 0 0,0
16.08.2018 06:00:00 11,1 10,3 2 1 4 2 S 0 0,0
16.08.2018 05:00:00 11,8 10,9 0 0 4 2 N 0 0,0
16.08.2018 04:00:00 12,8 11,9 2 1 5 3 E 0 0,0
16.08.2018 03:00:00 13,3 11,9 0 0 2 1 N 0 0,0
16.08.2018 02:00:00 14,2 12,1 0 0 4 2 N 0 -
16.08.2018 01:00:00 15,0 12,7 4 2 5 3 SE 0 0,0

tt = Température de l'air
td = dewpoint
ff = Vitesse du vent
fx = gusts
dd = Direction du vent
sd = Ensoleillement
rr = Quantités de précipitations

stations d'obs. à proximité